createdAt,value
2023-05-04T00:00:40.853Z,100
2023-05-04T00:15:40.992Z,100
2023-05-04T00:30:41.502Z,100
2023-05-04T00:45:41.876Z,100
2023-05-04T01:00:47.436Z,100
2023-05-04T01:15:43.255Z,100
2023-05-04T01:30:45.167Z,100
2023-05-04T01:45:45.445Z,100
2023-05-04T02:00:44.961Z,100
2023-05-04T02:15:47.094Z,100
2023-05-04T02:30:47.266Z,100
2023-05-04T02:45:48.113Z,100
2023-05-04T03:00:48.134Z,100
2023-05-04T03:15:48.832Z,100
2023-05-04T03:30:48.978Z,100
2023-05-04T03:45:51.258Z,100
2023-05-04T03:49:04.648Z,100
2023-05-04T04:03:56.547Z,100
2023-05-04T04:18:56.980Z,100
2023-05-04T04:33:53.220Z,100
2023-05-04T04:48:55.955Z,100
2023-05-04T06:04:07.205Z,100
2023-05-04T06:18:59.132Z,100
2023-05-04T06:33:58.102Z,100
2023-05-04T06:49:29.978Z,100
2023-05-04T07:19:10.195Z,100
2023-05-04T07:49:27.597Z,100
2023-05-04T08:04:05.683Z,100
2023-05-04T08:19:14.245Z,100
2023-05-04T08:34:06.578Z,100
2023-05-04T08:49:05.175Z,100
2023-05-04T09:04:03.215Z,100
2023-05-04T09:19:08.227Z,100
2023-05-04T09:34:08.818Z,100
2023-05-04T09:49:16.286Z,100
2023-05-04T10:04:06.801Z,100
2023-05-04T10:45:52.253Z,87.4
2023-05-04T10:49:07.010Z,70.2
2023-05-04T11:04:08.397Z,83
2023-05-04T11:19:09.236Z,100
2023-05-04T11:34:09.567Z,92.3
2023-05-04T11:49:08.966Z,80.1
2023-05-04T12:04:10.254Z,57.5
2023-05-04T12:19:11.923Z,57.5
2023-05-04T12:34:21.863Z,66.3
2023-05-04T12:49:11.320Z,67.4
2023-05-04T13:04:12.104Z,55.1
2023-05-04T13:19:16.285Z,46.7
2023-05-04T13:34:12.508Z,42.4
2023-05-04T13:49:13.304Z,44.3
2023-05-04T14:19:21.914Z,44.7
2023-05-04T14:34:35.879Z,44.7
2023-05-04T14:49:38.077Z,40.1
2023-05-04T15:04:20.038Z,40.1
2023-05-04T15:34:24.596Z,42.2
2023-05-04T15:47:14.616Z,42.2
2023-05-04T16:04:21.581Z,41.2
2023-05-04T16:19:19.195Z,44.6
2023-05-04T16:34:19.617Z,41.6
2023-05-04T16:49:22.440Z,41.6
2023-05-04T17:31:08.702Z,42
2023-05-04T17:34:21.570Z,53.5
2023-05-04T17:49:29.266Z,53.5
2023-05-04T18:04:23.344Z,84.1
2023-05-04T18:19:30.512Z,84.1
2023-05-04T18:34:27.460Z,100
2023-05-04T18:49:38.435Z,100
2023-05-04T19:04:29.074Z,100
2023-05-04T19:19:35.990Z,100
2023-05-04T19:34:29.778Z,100
2023-05-04T19:49:32.346Z,100
2023-05-04T20:04:29.712Z,100
2023-05-04T20:19:32.121Z,100
2023-05-04T20:34:31.196Z,100
2023-05-04T20:49:32.226Z,100
2023-05-04T21:04:31.793Z,100
2023-05-04T21:19:34.158Z,100
2023-05-04T21:34:34.453Z,100
2023-05-04T21:49:33.770Z,100
2023-05-04T22:00:37.643Z,100
2023-05-04T22:15:51.394Z,100
2023-05-04T22:30:37.830Z,100
2023-05-04T22:45:42.386Z,100
2023-05-04T23:00:39.338Z,100
2023-05-04T23:15:40.698Z,100
2023-05-04T23:30:40.893Z,100
2023-05-04T23:45:46.923Z,100
